createdAt,value
2023-05-31T00:01:10.213Z,43.30
2023-05-31T00:06:14.661Z,43.20
2023-05-31T00:11:17.529Z,43.50
2023-05-31T00:16:52.376Z,43.40
2023-05-31T00:21:45.361Z,43.30
2023-05-31T00:26:48.217Z,43.50
2023-05-31T00:31:51.065Z,43.50
2023-05-31T00:36:55.343Z,43.40
2023-05-31T00:41:58.243Z,44.30
2023-05-31T00:47:01.460Z,44.30
2023-05-31T00:52:06.371Z,44.50
2023-05-31T00:57:09.245Z,44.80
2023-05-31T01:02:13.404Z,44.70
2023-05-31T01:07:17.628Z,45.00
2023-05-31T01:12:25.833Z,44.80
2023-05-31T01:17:35.873Z,44.80
2023-05-31T01:22:59.206Z,44.70
2023-05-31T01:28:08.207Z,44.90
2023-05-31T01:33:12.308Z,44.90
2023-05-31T01:38:15.409Z,45.00
2023-05-31T01:43:20.332Z,45.20
2023-05-31T01:48:23.242Z,45.00
2023-05-31T01:53:26.302Z,45.10
2023-05-31T01:58:32.969Z,45.00
2023-05-31T02:03:36.071Z,45.60
2023-05-31T02:08:38.905Z,45.30
2023-05-31T02:13:43.093Z,45.50
2023-05-31T02:18:46.094Z,45.50
2023-05-31T02:23:49.003Z,45.30
2023-05-31T02:28:53.277Z,45.30
2023-05-31T02:33:56.552Z,45.60
2023-05-31T02:38:59.626Z,45.50
2023-05-31T02:44:03.839Z,45.70
2023-05-31T02:49:08.299Z,45.90
2023-05-31T02:54:11.201Z,45.70
2023-05-31T02:59:16.285Z,45.50
2023-05-31T03:04:19.183Z,45.80
2023-05-31T03:09:22.086Z,45.70
2023-05-31T03:14:26.428Z,45.70
2023-05-31T03:19:29.676Z,46.00
2023-05-31T03:24:32.626Z,46.00
2023-05-31T03:29:39.761Z,46.00
2023-05-31T03:34:42.704Z,46.20
2023-05-31T03:39:45.872Z,46.50
2023-05-31T03:44:50.143Z,46.20
2023-05-31T03:49:53.172Z,46.20
2023-05-31T03:54:56.470Z,46.60
2023-05-31T04:00:01.384Z,46.50
2023-05-31T04:05:05.306Z,46.50
2023-05-31T04:10:10.400Z,46.50
2023-05-31T04:15:14.897Z,46.50
2023-05-31T04:20:19.894Z,46.50
2023-05-31T04:25:23.740Z,46.70
2023-05-31T04:30:28.538Z,46.70
2023-05-31T04:35:32.638Z,46.90
2023-05-31T04:40:35.643Z,46.80
2023-05-31T04:45:41.891Z,46.80
2023-05-31T04:50:45.013Z,47.10
2023-05-31T04:55:47.858Z,47.00
2023-05-31T05:00:52.330Z,46.90
2023-05-31T05:05:58.173Z,46.90
2023-05-31T05:11:01.276Z,47.00
2023-05-31T05:16:05.997Z,47.00
2023-05-31T05:21:09.408Z,47.20
2023-05-31T05:26:12.536Z,47.40
2023-05-31T05:31:17.047Z,47.60
2023-05-31T05:36:20.271Z,48.00
2023-05-31T05:41:23.296Z,47.90
2023-05-31T05:46:27.497Z,48.30
2023-05-31T05:51:30.382Z,48.20
2023-05-31T05:56:33.422Z,48.30
2023-05-31T06:01:37.748Z,48.60
2023-05-31T06:06:40.630Z,48.80
2023-05-31T06:11:43.562Z,48.80
2023-05-31T06:16:47.780Z,48.90
2023-05-31T06:21:51.131Z,49.10
2023-05-31T06:26:54.031Z,49.00
2023-05-31T06:31:58.377Z,48.80
2023-05-31T06:37:02.731Z,49.00
2023-05-31T06:42:06.410Z,48.70
2023-05-31T06:47:11.017Z,48.60
2023-05-31T06:52:14.444Z,48.70
2023-05-31T06:57:17.435Z,48.40
2023-05-31T07:02:21.681Z,48.50
2023-05-31T07:07:24.592Z,48.70
2023-05-31T07:12:27.434Z,48.50
2023-05-31T07:17:31.709Z,48.60
2023-05-31T07:22:34.617Z,48.10
2023-05-31T07:27:38.537Z,48.30
2023-05-31T07:32:43.119Z,48.20
2023-05-31T07:37:46.047Z,48.30
2023-05-31T07:42:48.971Z,48.20
2023-05-31T07:47:53.699Z,48.10
2023-05-31T07:52:56.643Z,48.10
2023-05-31T07:58:03.520Z,47.90
2023-05-31T08:03:08.120Z,48.00
2023-05-31T08:08:11.331Z,48.10
2023-05-31T08:13:14.294Z,47.80
2023-05-31T08:18:19.103Z,48.10
2023-05-31T08:23:22.744Z,47.90
2023-05-31T08:28:26.198Z,48.10
2023-05-31T08:33:31.775Z,47.70
2023-05-31T08:38:37.869Z,47.90
2023-05-31T08:43:41.458Z,48.00
2023-05-31T08:48:52.008Z,48.00
2023-05-31T08:53:55.481Z,47.90
2023-05-31T08:58:59.262Z,47.70
2023-05-31T09:04:06.463Z,47.80
2023-05-31T09:09:10.051Z,47.80
2023-05-31T09:14:13.322Z,47.60
2023-05-31T09:19:18.501Z,47.60
2023-05-31T09:24:21.865Z,47.60
2023-05-31T09:29:24.811Z,47.70
2023-05-31T09:34:30.471Z,47.80
2023-05-31T09:39:33.443Z,47.70
2023-05-31T09:44:36.794Z,47.80
2023-05-31T09:49:41.117Z,47.90
2023-05-31T09:54:44.068Z,47.90
2023-05-31T09:59:47.708Z,47.70
2023-05-31T10:04:52.507Z,47.80
2023-05-31T10:09:55.381Z,47.80
2023-05-31T10:15:02.668Z,47.90
2023-05-31T10:20:09.119Z,47.90
2023-05-31T10:25:14.359Z,48.00
2023-05-31T10:30:22.267Z,48.30
2023-05-31T10:35:28.151Z,48.30
2023-05-31T10:40:36.325Z,48.30
2023-05-31T10:45:41.734Z,48.30
2023-05-31T10:50:57.192Z,48.50
2023-05-31T10:56:04.453Z,48.30
2023-05-31T11:01:09.270Z,48.50
2023-05-31T11:06:15.381Z,48.30
2023-05-31T11:11:28.809Z,48.20
2023-05-31T11:16:34.287Z,48.30
2023-05-31T11:21:51.703Z,48.30
2023-05-31T11:26:54.928Z,48.50
2023-05-31T11:32:02.535Z,48.40
2023-05-31T11:37:07.155Z,48.50
2023-05-31T11:42:10.117Z,48.20
2023-05-31T11:47:19.613Z,48.10
2023-05-31T11:52:24.130Z,47.30
2023-05-31T11:57:27.440Z,47.20
2023-05-31T12:02:30.568Z,47.00
2023-05-31T12:07:34.893Z,46.90
2023-05-31T12:12:37.952Z,47.30
2023-05-31T12:17:41.367Z,47.20
2023-05-31T12:22:45.757Z,47.00
2023-05-31T12:27:48.735Z,47.10
2023-05-31T12:32:51.612Z,47.10
2023-05-31T12:37:56.185Z,47.30
2023-05-31T12:43:02.128Z,47.00
2023-05-31T12:48:05.683Z,47.00
2023-05-31T12:53:10.162Z,47.00
2023-05-31T12:58:14.310Z,46.90
2023-05-31T13:03:17.346Z,47.00
2023-05-31T13:08:21.778Z,46.80
2023-05-31T13:13:24.650Z,46.90
2023-05-31T13:18:28.327Z,46.80
2023-05-31T13:23:32.539Z,46.90
2023-05-31T13:28:35.490Z,47.00
2023-05-31T13:33:38.480Z,46.80
2023-05-31T13:38:42.856Z,46.90
2023-05-31T13:43:46.011Z,46.70
2023-05-31T13:48:49.049Z,46.80
2023-05-31T13:53:53.253Z,46.70
2023-05-31T13:58:56.133Z,46.70
2023-05-31T14:03:59.045Z,46.50
2023-05-31T14:09:03.329Z,46.70
2023-05-31T14:14:06.828Z,46.40
2023-05-31T14:19:09.738Z,46.20
2023-05-31T14:24:15.887Z,46.30
2023-05-31T14:29:20.032Z,46.20
2023-05-31T14:34:22.948Z,46.10
2023-05-31T14:39:28.042Z,45.90
2023-05-31T14:44:31.025Z,45.40
2023-05-31T14:49:34.661Z,43.20
2023-05-31T14:54:39.261Z,41.10
2023-05-31T14:59:42.095Z,39.30
2023-05-31T15:04:46.193Z,38.60
2023-05-31T15:09:50.868Z,37.80
2023-05-31T15:14:53.766Z,37.60
2023-05-31T15:19:56.725Z,37.80
2023-05-31T15:25:01.338Z,37.30
2023-05-31T15:30:04.783Z,37.40
2023-05-31T15:35:08.313Z,37.30
2023-05-31T15:40:13.093Z,37.90
2023-05-31T15:45:16.432Z,38.10
2023-05-31T15:50:20.015Z,38.10
2023-05-31T15:55:25.140Z,36.40
2023-05-31T16:00:28.018Z,35.70
2023-05-31T16:05:31.666Z,35.20
2023-05-31T16:10:35.920Z,34.70
2023-05-31T16:15:38.841Z,35.40
2023-05-31T16:20:42.751Z,37.40
2023-05-31T16:25:46.983Z,37.10
2023-05-31T16:30:49.916Z,36.10
2023-05-31T16:35:52.783Z,35.60
2023-05-31T16:40:57.077Z,35.20
2023-05-31T16:46:02.528Z,35.80
2023-05-31T16:51:05.712Z,39.60
2023-05-31T16:56:10.176Z,40.90
2023-05-31T17:01:13.032Z,41.60
2023-05-31T17:06:16.251Z,42.10
2023-05-31T17:11:20.517Z,42.80
2023-05-31T17:16:23.774Z,42.60
2023-05-31T17:21:26.698Z,42.80
2023-05-31T17:26:30.989Z,43.10
2023-05-31T17:31:33.971Z,44.00
2023-05-31T17:36:37.834Z,44.00
2023-05-31T17:41:43.038Z,44.30
2023-05-31T17:46:46.246Z,44.70
2023-05-31T17:51:49.246Z,45.00
2023-05-31T17:56:53.488Z,44.70
2023-05-31T18:01:57.232Z,45.10
2023-05-31T18:07:00.391Z,45.00
2023-05-31T18:12:04.954Z,45.30
2023-05-31T18:17:07.993Z,45.40
2023-05-31T18:22:11.053Z,45.70
2023-05-31T18:27:16.669Z,45.50
2023-05-31T18:32:20.466Z,45.90
2023-05-31T18:37:23.740Z,45.80
2023-05-31T18:42:27.928Z,45.90
2023-05-31T18:47:32.004Z,46.10
2023-05-31T18:52:35.486Z,46.20
2023-05-31T18:57:40.650Z,46.70
2023-05-31T19:02:43.527Z,46.90
2023-05-31T19:07:46.426Z,47.10
2023-05-31T19:12:51.263Z,47.40
2023-05-31T19:17:56.876Z,47.80
2023-05-31T19:23:10.527Z,48.00
2023-05-31T19:28:16.272Z,48.10
2023-05-31T19:33:20.156Z,48.60
2023-05-31T19:38:30.188Z,48.80
2023-05-31T19:43:35.541Z,48.80
2023-05-31T19:48:38.392Z,49.20
2023-05-31T19:53:41.316Z,49.40
2023-05-31T19:58:45.996Z,49.60
2023-05-31T20:03:49.015Z,49.80
2023-05-31T20:08:52.029Z,49.90
2023-05-31T20:13:56.326Z,50.10
2023-05-31T20:18:59.571Z,50.10
2023-05-31T20:24:02.580Z,50.30
2023-05-31T20:29:06.836Z,50.30
2023-05-31T20:34:09.720Z,50.30
2023-05-31T20:39:12.580Z,50.40
2023-05-31T20:44:17.404Z,50.60
2023-05-31T20:49:20.779Z,50.60
2023-05-31T20:54:25.267Z,50.60
2023-05-31T20:59:30.523Z,51.00
2023-05-31T21:04:34.216Z,51.00
2023-05-31T21:09:37.073Z,51.00
2023-05-31T21:14:41.310Z,50.90
2023-05-31T21:19:44.225Z,51.10
2023-05-31T21:24:47.046Z,51.20
2023-05-31T21:29:52.603Z,51.20
2023-05-31T21:34:55.542Z,51.40
2023-05-31T21:39:58.413Z,51.40
2023-05-31T21:45:03.351Z,51.40
2023-05-31T21:50:07.179Z,51.40
2023-05-31T21:55:11.535Z,51.70
2023-05-31T22:00:16.655Z,51.60
2023-05-31T22:05:21.004Z,51.70
2023-05-31T22:10:23.981Z,52.60
2023-05-31T22:15:28.233Z,52.70
2023-05-31T22:20:35.183Z,52.70
2023-05-31T22:25:38.113Z,52.80
2023-05-31T22:30:42.349Z,53.00
2023-05-31T22:35:45.368Z,52.70
2023-05-31T22:40:49.166Z,52.00
2023-05-31T22:45:53.413Z,53.00
2023-05-31T22:50:59.324Z,53.00
2023-05-31T22:56:03.407Z,52.90
2023-05-31T23:01:08.173Z,53.00
2023-05-31T23:06:13.480Z,53.10
2023-05-31T23:11:17.791Z,53.20
2023-05-31T23:16:22.371Z,53.40
2023-05-31T23:21:28.047Z,53.20
2023-05-31T23:26:31.043Z,53.40
2023-05-31T23:31:35.454Z,53.50
2023-05-31T23:36:38.378Z,53.40
2023-05-31T23:41:42.321Z,53.50
2023-05-31T23:46:46.518Z,53.40
2023-05-31T23:51:49.413Z,53.50
2023-05-31T23:56:52.323Z,53.60
